Time;durP1;ratioP1;P1;durP2;ratioP2;P2;SDS_P1;SDS_P2;PMS_P1;PMS_P2;Temp;Humidity;BMP_temperature;BMP_pressure;BME280_temperature;BME280_humidity;BME280_pressure;Samples;Min_cycle;Max_cycle;Signal;HPM_P1;HPM_P2
2024/01/13 00:00:31;;;;;;;28.80;18.45;;;3.20;99.90;;;;;;5110487;28;20442;-80
2024/01/13 00:02:57;;;;;;;25.55;18.40;;;3.20;99.90;;;;;;5091596;28;20028;-79
2024/01/13 00:05:22;;;;;;;29.90;20.20;;;3.10;99.90;;;;;;5110737;28;20023;-81
2024/01/13 00:07:48;;;;;;;27.10;18.42;;;3.00;99.90;;;;;;5109926;28;20452;-80
2024/01/13 00:10:14;;;;;;;30.17;18.98;;;3.10;99.90;;;;;;5118466;28;20035;-80
2024/01/13 00:12:39;;;;;;;30.85;19.60;;;3.00;99.90;;;;;;5101804;28;20126;-80
2024/01/13 00:15:06;;;;;;;28.90;19.77;;;3.00;99.90;;;;;;5094528;28;20114;-80
2024/01/13 00:17:31;;;;;;;30.25;18.55;;;3.00;99.90;;;;;;5119092;28;20037;-79
2024/01/13 00:19:57;;;;;;;31.38;19.90;;;3.00;99.90;;;;;;5132300;27;20377;-79
2024/01/13 00:22:23;;;;;;;27.90;19.42;;;3.10;99.90;;;;;;5135130;27;20042;-79
2024/01/13 00:24:49;;;;;;;29.60;18.38;;;3.10;99.90;;;;;;5134958;27;20044;-79
2024/01/13 00:27:14;;;;;;;27.13;17.80;;;3.10;99.90;;;;;;5134436;27;20020;-79
2024/01/13 00:29:40;;;;;;;27.75;17.55;;;3.10;99.90;;;;;;5134289;27;20030;-80
2024/01/13 00:32:06;;;;;;;29.95;18.83;;;3.10;99.90;;;;;;5134945;27;20033;-79
2024/01/13 00:34:32;;;;;;;28.58;18.70;;;3.10;99.90;;;;;;5134606;27;20019;-80
2024/01/13 00:36:57;;;;;;;29.48;18.75;;;3.10;99.90;;;;;;5116012;27;20051;-79
2024/01/13 00:39:23;;;;;;;30.17;19.17;;;3.10;99.90;;;;;;5116452;27;20336;-79
2024/01/13 00:41:49;;;;;;;29.88;18.92;;;3.10;99.90;;;;;;5134061;27;20071;-81
2024/01/13 00:44:15;;;;;;;27.77;18.50;;;3.10;99.90;;;;;;5135007;27;20035;-79
2024/01/13 00:46:41;;;;;;;28.70;19.02;;;3.10;99.90;;;;;;5134629;27;20428;-80
2024/01/13 00:49:06;;;;;;;29.35;20.42;;;3.20;99.90;;;;;;5134930;27;20076;-79
2024/01/13 00:51:33;;;;;;;29.05;19.02;;;3.10;99.90;;;;;;5135473;27;20019;-79
2024/01/13 00:53:59;;;;;;;25.00;17.95;;;3.10;99.90;;;;;;5134027;27;20110;-79
2024/01/13 00:56:26;;;;;;;31.55;18.92;;;3.20;99.90;;;;;;5134333;27;20026;-78
2024/01/13 00:58:51;;;;;;;29.27;17.88;;;3.20;99.90;;;;;;5115724;27;20039;-78
2024/01/13 01:01:17;;;;;;;28.15;18.98;;;3.20;99.90;;;;;;5134177;27;20376;-78
2024/01/13 01:03:43;;;;;;;28.75;19.17;;;3.20;99.90;;;;;;5134584;27;20030;-78
2024/01/13 01:06:09;;;;;;;31.85;19.80;;;3.20;99.90;;;;;;5134817;27;20413;-79
2024/01/13 01:08:35;;;;;;;28.20;17.27;;;3.20;99.90;;;;;;5134052;27;20019;-79
2024/01/13 01:11:00;;;;;;;31.83;19.17;;;3.20;99.90;;;;;;5133569;27;20015;-79
2024/01/13 01:13:26;;;;;;;28.95;18.67;;;3.30;99.90;;;;;;5133962;27;20027;-79
2024/01/13 01:15:52;;;;;;;34.45;20.08;;;3.30;99.90;;;;;;5133263;27;20319;-79
2024/01/13 01:18:17;;;;;;;29.35;18.65;;;3.30;99.90;;;;;;5134503;27;20090;-79
2024/01/13 01:20:43;;;;;;;29.33;19.23;;;3.30;99.90;;;;;;5133420;27;20023;-79
2024/01/13 01:23:09;;;;;;;31.35;20.40;;;3.30;99.90;;;;;;5133887;27;20106;-79
2024/01/13 01:25:35;;;;;;;28.85;19.98;;;3.20;99.90;;;;;;5115762;27;20450;-79
2024/01/13 01:28:00;;;;;;;35.00;20.48;;;3.20;99.90;;;;;;5133128;27;20023;-79
2024/01/13 01:30:26;;;;;;;30.38;19.85;;;3.20;99.90;;;;;;5133352;27;20098;-79
2024/01/13 01:32:52;;;;;;;33.63;21.13;;;3.20;99.90;;;;;;5133128;27;20117;-79
2024/01/13 01:35:17;;;;;;;31.85;20.02;;;3.20;99.90;;;;;;5115315;27;20023;-79
2024/01/13 01:37:43;;;;;;;36.65;21.20;;;3.10;99.90;;;;;;5133397;27;20044;-79
2024/01/13 01:40:14;;;;;;;34.85;20.30;;;3.10;99.90;;;;;;5115705;27;20038;-79
2024/01/13 01:42:40;;;;;;;32.72;20.40;;;3.10;99.90;;;;;;5133493;27;20019;-79
2024/01/13 01:45:07;;;;;;;30.88;20.48;;;3.10;99.90;;;;;;5133890;27;20026;-79
2024/01/13 01:47:33;;;;;;;31.83;19.67;;;3.10;99.90;;;;;;5133751;27;20027;-79
2024/01/13 01:49:59;;;;;;;31.55;20.15;;;3.00;99.90;;;;;;5132708;27;20375;-79
2024/01/13 01:52:26;;;;;;;35.58;21.17;;;3.00;99.90;;;;;;5133427;27;20052;-79
2024/01/13 01:54:52;;;;;;;31.88;20.40;;;3.10;99.90;;;;;;5133206;27;20027;-79
2024/01/13 01:57:20;;;;;;;33.00;19.58;;;3.10;99.90;;;;;;5132972;27;20047;-79
2024/01/13 01:59:46;;;;;;;29.08;18.27;;;3.10;99.90;;;;;;5114623;27;20049;-79
2024/01/13 02:02:12;;;;;;;28.20;18.67;;;3.10;99.90;;;;;;5133437;27;20035;-79
2024/01/13 02:04:38;;;;;;;29.65;18.48;;;3.10;99.90;;;;;;5133016;27;20436;-79
2024/01/13 02:07:04;;;;;;;28.35;18.73;;;3.00;99.90;;;;;;5133051;27;20034;-79
2024/01/13 02:09:31;;;;;;;30.02;18.90;;;3.00;99.90;;;;;;5114532;27;20102;-79
2024/01/13 02:11:57;;;;;;;30.42;18.88;;;3.00;99.90;;;;;;5132515;27;20106;-79
2024/01/13 02:14:23;;;;;;;29.88;19.77;;;3.00;99.90;;;;;;5133273;27;20393;-79
2024/01/13 02:16:50;;;;;;;30.10;18.52;;;3.10;99.90;;;;;;5113828;27;20015;-79
2024/01/13 02:19:16;;;;;;;34.85;19.88;;;3.10;99.90;;;;;;5132895;27;20027;-79
2024/01/13 02:21:42;;;;;;;30.70;19.30;;;3.10;99.90;;;;;;5131713;27;20054;-79
2024/01/13 02:24:08;;;;;;;30.98;18.23;;;3.10;99.90;;;;;;5132874;27;20027;-78
2024/01/13 02:26:34;;;;;;;33.70;20.05;;;3.10;99.90;;;;;;5132960;27;20047;-78
2024/01/13 02:29:00;;;;;;;29.50;19.20;;;3.10;99.90;;;;;;5131892;27;20126;-79
2024/01/13 02:31:26;;;;;;;30.63;18.95;;;3.10;99.90;;;;;;5132956;27;20113;-78
2024/01/13 02:33:52;;;;;;;28.80;18.30;;;3.00;99.90;;;;;;5131644;27;20043;-79
2024/01/13 02:36:18;;;;;;;33.25;19.90;;;3.00;99.90;;;;;;5132420;27;20140;-79
2024/01/13 02:38:44;;;;;;;34.03;20.10;;;3.10;99.90;;;;;;5132064;27;20109;-79
2024/01/13 02:41:10;;;;;;;30.88;18.35;;;3.10;99.90;;;;;;5113140;27;20024;-79
2024/01/13 02:43:36;;;;;;;28.48;18.70;;;3.10;99.90;;;;;;5132231;27;20034;-79
2024/01/13 02:46:02;;;;;;;27.95;18.88;;;3.10;99.90;;;;;;5113147;27;20576;-79
2024/01/13 02:48:38;;;;;;;26.83;18.38;;;3.00;99.90;;;;;;5132236;27;20030;-79
2024/01/13 02:51:06;;;;;;;27.65;18.13;;;3.00;99.90;;;;;;5132018;27;20019;-79
2024/01/13 02:53:32;;;;;;;28.52;18.63;;;3.00;99.90;;;;;;5131904;27;20023;-79
2024/01/13 02:55:57;;;;;;;30.67;18.85;;;3.00;99.90;;;;;;5131170;27;20034;-79
2024/01/13 02:58:23;;;;;;;33.63;19.17;;;2.90;99.90;;;;;;5131653;27;20457;-79
2024/01/13 03:00:49;;;;;;;28.80;18.40;;;2.90;99.90;;;;;;5130911;27;20055;-79
2024/01/13 03:03:14;;;;;;;29.20;18.55;;;3.00;99.90;;;;;;5131490;27;20448;-79
2024/01/13 03:05:40;;;;;;;29.35;19.70;;;3.00;99.90;;;;;;5131401;27;20023;-78
2024/01/13 03:08:06;;;;;;;28.20;17.95;;;3.00;99.90;;;;;;5113201;27;20359;-79
2024/01/13 03:10:31;;;;;;;29.23;18.80;;;2.90;99.90;;;;;;5131614;27;20019;-79
2024/01/13 03:12:57;;;;;;;28.38;18.38;;;2.90;99.90;;;;;;5131085;27;20205;-79
2024/01/13 03:15:23;;;;;;;30.48;18.60;;;2.90;99.90;;;;;;5113224;27;20034;-79
2024/01/13 03:17:49;;;;;;;28.63;18.58;;;3.00;99.90;;;;;;5131350;27;20026;-79
2024/01/13 03:20:15;;;;;;;29.80;20.02;;;3.00;99.90;;;;;;5131995;27;20023;-79
2024/01/13 03:22:41;;;;;;;31.63;19.35;;;3.00;99.90;;;;;;5130927;27;20094;-79
2024/01/13 03:25:06;;;;;;;33.10;18.58;;;2.90;99.90;;;;;;5131424;27;20019;-79
2024/01/13 03:27:32;;;;;;;30.13;19.20;;;2.90;99.90;;;;;;5131573;27;20426;-79
2024/01/13 03:29:58;;;;;;;32.47;19.00;;;2.80;99.90;;;;;;5112322;27;20589;-79
2024/01/13 03:32:24;;;;;;;27.00;17.23;;;2.90;99.90;;;;;;5131259;27;20114;-80
2024/01/13 03:34:50;;;;;;;29.05;18.15;;;3.00;99.90;;;;;;5130894;27;20409;-79
2024/01/13 03:37:16;;;;;;;27.15;17.98;;;2.90;99.90;;;;;;5131572;27;20038;-79
2024/01/13 03:39:42;;;;;;;30.35;18.80;;;2.90;99.90;;;;;;5130578;27;20041;-79
2024/01/13 03:42:07;;;;;;;28.08;17.67;;;2.90;99.90;;;;;;5113101;28;20034;-79
2024/01/13 03:44:33;;;;;;;28.25;17.90;;;3.00;99.90;;;;;;5131966;27;20436;-79
2024/01/13 03:46:59;;;;;;;25.20;16.23;;;2.90;99.90;;;;;;5131388;27;20020;-79
2024/01/13 03:49:24;;;;;;;29.08;18.08;;;3.00;99.90;;;;;;5113591;27;20363;-78
2024/01/13 03:51:50;;;;;;;27.30;18.20;;;3.00;99.90;;;;;;5131733;27;20023;-79
2024/01/13 03:54:16;;;;;;;28.25;18.10;;;2.90;99.90;;;;;;5131371;27;20031;-79
2024/01/13 03:56:42;;;;;;;27.55;18.08;;;2.90;99.90;;;;;;5131284;28;20031;-79
2024/01/13 03:59:07;;;;;;;29.35;18.23;;;2.90;99.90;;;;;;5131782;28;20027;-79
2024/01/13 04:01:33;;;;;;;27.70;18.23;;;2.80;99.90;;;;;;5132133;28;20368;-79
2024/01/13 04:03:59;;;;;;;27.30;18.27;;;2.90;99.90;;;;;;5131423;28;20024;-79
2024/01/13 04:06:24;;;;;;;29.25;18.23;;;2.90;99.90;;;;;;5131954;28;20474;-78
2024/01/13 04:08:50;;;;;;;27.70;17.55;;;2.90;99.90;;;;;;5113075;28;20024;-78
2024/01/13 04:11:16;;;;;;;26.25;16.13;;;2.90;99.90;;;;;;5131780;28;20098;-78
2024/01/13 04:13:41;;;;;;;30.20;17.42;;;2.90;99.90;;;;;;5131735;28;20421;-78
2024/01/13 04:16:11;;;;;;;27.45;17.30;;;2.80;99.90;;;;;;5131474;28;20432;-78
2024/01/13 04:18:37;;;;;;;25.70;17.13;;;2.90;99.90;;;;;;5131357;28;20031;-78
2024/01/13 04:21:03;;;;;;;26.42;16.67;;;2.80;99.90;;;;;;5130781;28;20019;-78
2024/01/13 04:23:29;;;;;;;26.92;17.10;;;2.90;99.90;;;;;;5112800;28;20027;-78
2024/01/13 04:25:54;;;;;;;28.55;17.65;;;2.90;99.90;;;;;;5130699;28;20344;-78
2024/01/13 04:28:20;;;;;;;30.98;18.88;;;2.90;99.90;;;;;;5131308;28;20019;-78
2024/01/13 04:30:46;;;;;;;27.40;17.60;;;2.80;99.90;;;;;;5130880;28;20050;-78
2024/01/13 04:33:11;;;;;;;26.15;17.17;;;2.80;99.90;;;;;;5131259;28;20106;-78
2024/01/13 04:35:37;;;;;;;26.15;17.52;;;2.80;99.90;;;;;;5112637;28;20375;-78
2024/01/13 04:38:03;;;;;;;25.42;17.30;;;2.80;99.90;;;;;;5112065;28;20117;-78
2024/01/13 04:40:33;;;;;;;30.55;18.85;;;2.80;99.90;;;;;;5131269;28;20027;-78
2024/01/13 04:42:59;;;;;;;28.75;18.33;;;2.80;99.90;;;;;;5130708;28;20023;-78
2024/01/13 04:45:24;;;;;;;27.92;18.10;;;2.80;99.90;;;;;;5112706;28;20439;-78
2024/01/13 04:47:50;;;;;;;30.05;19.73;;;2.80;99.90;;;;;;5130185;28;20015;-78
2024/01/13 04:50:16;;;;;;;27.83;18.42;;;2.90;99.90;;;;;;5131345;28;20015;-78
2024/01/13 04:52:42;;;;;;;27.50;17.02;;;2.90;99.90;;;;;;5130830;28;20027;-78
2024/01/13 04:55:08;;;;;;;28.98;18.58;;;2.90;99.90;;;;;;5130322;28;20105;-78
2024/01/13 04:57:33;;;;;;;28.90;18.23;;;2.90;99.90;;;;;;5131063;28;20075;-78
2024/01/13 04:59:59;;;;;;;26.10;16.75;;;2.90;99.90;;;;;;5112042;28;20027;-78
2024/01/13 05:02:25;;;;;;;28.33;17.58;;;2.90;99.90;;;;;;5131393;28;20029;-78
2024/01/13 05:04:50;;;;;;;28.58;16.55;;;3.00;99.90;;;;;;5131363;27;20034;-78
2024/01/13 05:07:16;;;;;;;27.08;17.67;;;3.00;99.90;;;;;;5134828;27;20023;-78
2024/01/13 05:09:42;;;;;;;26.92;17.65;;;3.00;99.90;;;;;;5116166;27;20016;-78
2024/01/13 05:12:08;;;;;;;29.42;18.10;;;3.00;99.90;;;;;;5133729;27;20448;-78
2024/01/13 05:14:33;;;;;;;31.05;18.67;;;2.90;99.90;;;;;;5134433;27;20034;-78
2024/01/13 05:16:59;;;;;;;26.30;16.38;;;2.90;99.90;;;;;;5133530;27;20120;-78
2024/01/13 05:19:25;;;;;;;32.25;19.13;;;2.90;99.90;;;;;;5115960;27;20019;-79
2024/01/13 05:21:51;;;;;;;30.10;18.33;;;2.90;99.90;;;;;;5133517;27;20063;-78
2024/01/13 05:24:17;;;;;;;27.88;18.00;;;2.90;99.90;;;;;;5134021;27;20023;-78
2024/01/13 05:26:43;;;;;;;29.83;19.23;;;2.90;99.90;;;;;;5133946;27;20015;-79
2024/01/13 05:29:08;;;;;;;28.88;17.88;;;2.90;99.90;;;;;;5133660;27;20047;-78
2024/01/13 05:31:34;;;;;;;29.33;18.73;;;3.00;99.90;;;;;;5133958;27;20087;-78
2024/01/13 05:34:00;;;;;;;30.10;18.00;;;3.00;99.90;;;;;;5115025;27;20041;-78
2024/01/13 05:36:25;;;;;;;27.23;17.75;;;2.90;99.90;;;;;;5115430;27;20114;-78
2024/01/13 05:38:51;;;;;;;33.70;19.27;;;2.90;99.90;;;;;;5133269;27;20072;-78
2024/01/13 05:41:17;;;;;;;29.67;18.92;;;2.90;99.90;;;;;;5133945;27;20072;-78
2024/01/13 05:43:43;;;;;;;26.77;17.20;;;3.00;99.90;;;;;;5133938;27;20027;-78
2024/01/13 05:46:11;;;;;;;29.13;17.70;;;3.00;99.90;;;;;;5133220;27;20015;-78
2024/01/13 05:48:37;;;;;;;27.98;17.67;;;3.00;99.90;;;;;;5134435;27;20034;-78
2024/01/13 05:51:03;;;;;;;28.17;18.02;;;3.00;99.90;;;;;;5098142;27;20056;-76
2024/01/13 05:53:29;;;;;;;32.65;18.63;;;3.00;99.90;;;;;;5133691;27;20423;-78
2024/01/13 05:55:54;;;;;;;28.25;18.55;;;3.00;99.90;;;;;;5133353;27;20325;-78
2024/01/13 05:58:20;;;;;;;30.27;18.88;;;2.90;99.90;;;;;;5133881;27;20043;-78
2024/01/13 06:00:46;;;;;;;30.40;18.80;;;2.90;99.90;;;;;;5133411;27;20031;-78
2024/01/13 06:03:12;;;;;;;32.08;19.85;;;2.90;99.90;;;;;;5133176;27;20027;-79
2024/01/13 06:05:40;;;;;;;29.65;18.88;;;2.90;99.90;;;;;;5133643;27;20023;-78
2024/01/13 06:08:06;;;;;;;31.08;19.23;;;2.90;99.90;;;;;;5132889;27;20027;-78
2024/01/13 06:10:33;;;;;;;32.05;18.92;;;2.90;99.90;;;;;;5133684;27;20084;-78
2024/01/13 06:12:59;;;;;;;31.70;18.83;;;2.90;99.90;;;;;;5132885;27;20019;-78
2024/01/13 06:15:26;;;;;;;28.80;18.58;;;2.90;99.90;;;;;;5133240;27;20023;-78
2024/01/13 06:17:52;;;;;;;31.27;19.52;;;2.90;99.90;;;;;;5132661;27;20355;-79
2024/01/13 06:20:18;;;;;;;31.48;19.20;;;2.80;99.90;;;;;;5133234;27;20102;-78
2024/01/13 06:22:44;;;;;;;28.98;18.80;;;2.80;99.90;;;;;;5114958;27;20058;-78
2024/01/13 06:25:09;;;;;;;31.48;19.67;;;2.90;99.90;;;;;;5132731;27;20057;-79
2024/01/13 06:27:35;;;;;;;32.05;19.20;;;2.90;99.90;;;;;;5132878;27;20022;-78
2024/01/13 06:30:02;;;;;;;30.08;18.75;;;2.90;99.90;;;;;;5132620;27;20080;-78
2024/01/13 06:32:28;;;;;;;26.67;17.92;;;2.90;99.90;;;;;;5133001;27;20035;-78
2024/01/13 06:34:54;;;;;;;30.88;19.10;;;2.90;99.90;;;;;;5113882;27;20114;-78
2024/01/13 06:37:19;;;;;;;30.30;19.80;;;3.00;99.90;;;;;;5114475;27;20023;-78
2024/01/13 06:39:45;;;;;;;34.60;18.90;;;3.00;99.90;;;;;;5114501;27;20023;-78
2024/01/13 06:42:11;;;;;;;33.92;20.20;;;2.90;99.90;;;;;;5132226;27;20206;-78
2024/01/13 06:44:36;;;;;;;29.13;18.40;;;3.00;99.90;;;;;;5114294;27;20114;-79
2024/01/13 06:47:03;;;;;;;30.55;18.33;;;3.00;99.90;;;;;;5131943;27;20068;-78
2024/01/13 06:49:28;;;;;;;33.20;19.55;;;3.10;99.90;;;;;;5114445;27;20019;-79
2024/01/13 06:51:54;;;;;;;31.60;19.38;;;3.10;99.90;;;;;;5132304;27;20385;-78
2024/01/13 06:54:20;;;;;;;33.03;19.38;;;3.10;99.90;;;;;;5132639;27;20035;-78
2024/01/13 06:56:46;;;;;;;29.15;18.58;;;3.20;99.90;;;;;;5132215;27;20098;-78
2024/01/13 06:59:11;;;;;;;30.80;19.05;;;3.20;99.90;;;;;;5132438;27;20243;-78
2024/01/13 07:01:37;;;;;;;30.48;19.05;;;3.20;99.90;;;;;;5132855;27;20027;-78
2024/01/13 07:04:03;;;;;;;31.67;20.15;;;3.20;99.90;;;;;;5131968;27;20440;-78
2024/01/13 07:06:29;;;;;;;31.20;19.67;;;3.20;99.90;;;;;;5132544;27;20046;-78
2024/01/13 07:08:56;;;;;;;34.72;20.55;;;3.20;99.90;;;;;;5113261;27;20054;-78
2024/01/13 07:11:22;;;;;;;34.17;20.63;;;3.20;99.90;;;;;;5113927;27;20328;-78
2024/01/13 07:13:47;;;;;;;34.20;20.45;;;3.20;99.90;;;;;;5113758;27;20019;-78
2024/01/13 07:16:13;;;;;;;33.45;20.10;;;3.20;99.90;;;;;;5131877;27;20038;-78
2024/01/13 07:18:39;;;;;;;37.35;21.10;;;3.20;99.90;;;;;;5132540;27;20360;-78
2024/01/13 07:21:07;;;;;;;36.97;21.63;;;3.20;99.90;;;;;;5131785;27;20463;-78
2024/01/13 07:23:33;;;;;;;38.13;21.95;;;3.20;99.90;;;;;;5131897;27;20031;-77
2024/01/13 07:26:00;;;;;;;35.97;21.55;;;3.20;99.90;;;;;;5131077;27;20019;-78
2024/01/13 07:28:26;;;;;;;40.35;21.98;;;3.20;99.90;;;;;;5131663;27;20019;-78
2024/01/13 07:30:52;;;;;;;40.47;21.55;;;3.20;99.90;;;;;;5113972;27;20022;-78
2024/01/13 07:33:17;;;;;;;39.65;22.33;;;3.10;99.90;;;;;;5131296;27;20023;-78
2024/01/13 07:35:43;;;;;;;39.10;22.27;;;3.20;99.90;;;;;;5113692;27;20019;-78
2024/01/13 07:38:09;;;;;;;36.53;21.58;;;3.20;99.90;;;;;;5131626;27;20068;-78
2024/01/13 07:40:35;;;;;;;36.55;21.70;;;3.20;99.90;;;;;;5131989;27;20023;-78
2024/01/13 07:43:01;;;;;;;40.78;23.23;;;3.20;99.90;;;;;;5131314;27;20465;-78
2024/01/13 07:45:27;;;;;;;40.28;21.98;;;3.20;99.90;;;;;;5131830;27;20023;-78
2024/01/13 07:47:53;;;;;;;38.25;22.35;;;3.30;99.90;;;;;;5131598;27;20106;-78
2024/01/13 07:50:18;;;;;;;41.97;23.88;;;3.30;99.90;;;;;;5131634;27;20088;-78
2024/01/13 07:52:44;;;;;;;43.95;24.35;;;3.30;99.90;;;;;;5131832;27;20336;-78
2024/01/13 07:55:10;;;;;;;39.80;22.85;;;3.30;99.90;;;;;;5131216;27;20031;-78
2024/01/13 07:57:36;;;;;;;40.58;23.27;;;3.30;99.90;;;;;;5131261;27;20043;-79
2024/01/13 08:00:03;;;;;;;40.78;23.25;;;3.30;99.90;;;;;;5131315;28;20024;-78
2024/01/13 08:02:28;;;;;;;45.42;24.15;;;3.30;99.90;;;;;;5131733;28;20140;-78
2024/01/13 08:04:54;;;;;;;43.55;24.20;;;3.20;99.90;;;;;;5131895;28;20106;-78
2024/01/13 08:07:23;;;;;;;42.75;23.95;;;3.30;99.90;;;;;;5112277;28;20023;-78
2024/01/13 08:09:49;;;;;;;46.17;25.13;;;3.20;99.90;;;;;;5131427;28;20147;-78
2024/01/13 08:12:14;;;;;;;40.95;23.25;;;3.20;99.90;;;;;;5130996;28;20427;-78
2024/01/13 08:14:40;;;;;;;43.58;23.20;;;3.20;99.90;;;;;;5131719;28;20365;-78
2024/01/13 08:17:06;;;;;;;40.15;22.58;;;3.20;99.90;;;;;;5130920;28;20043;-78
2024/01/13 08:19:32;;;;;;;42.22;23.00;;;3.20;99.90;;;;;;5123406;28;20101;-78
2024/01/13 08:21:58;;;;;;;45.05;24.10;;;3.20;99.90;;;;;;5130465;28;20434;-78
2024/01/13 08:24:24;;;;;;;42.42;23.48;;;3.10;99.90;;;;;;5112210;28;20018;-78
2024/01/13 08:26:50;;;;;;;42.63;23.50;;;3.20;99.90;;;;;;5131041;28;20474;-78
2024/01/13 08:29:15;;;;;;;44.13;24.13;;;3.20;99.90;;;;;;5130606;28;20019;-78
2024/01/13 08:31:41;;;;;;;43.60;24.70;;;3.20;99.90;;;;;;5131052;28;20018;-78
2024/01/13 08:34:08;;;;;;;40.20;22.65;;;3.10;99.90;;;;;;5111633;28;20035;-78
2024/01/13 08:36:34;;;;;;;42.85;24.20;;;3.20;99.90;;;;;;5131325;28;20106;-78
2024/01/13 08:39:00;;;;;;;42.90;24.38;;;3.20;99.90;;;;;;5130843;27;20090;-78
2024/01/13 08:41:25;;;;;;;39.83;22.23;;;3.20;99.90;;;;;;5115618;27;20023;-78
2024/01/13 08:43:51;;;;;;;43.30;23.02;;;3.20;99.90;;;;;;5116576;27;20023;-78
2024/01/13 08:46:17;;;;;;;41.10;24.45;;;3.20;99.90;;;;;;5130907;27;20039;-78
2024/01/13 08:48:42;;;;;;;42.70;22.73;;;3.10;99.90;;;;;;5107382;27;20023;-78
2024/01/13 08:51:08;;;;;;;41.53;23.98;;;3.20;99.90;;;;;;5123379;27;20486;-79
2024/01/13 08:53:34;;;;;;;42.38;23.30;;;3.20;99.90;;;;;;5124822;27;20126;-78
2024/01/13 08:56:00;;;;;;;39.72;22.35;;;3.20;99.90;;;;;;5122020;27;20098;-78
2024/01/13 08:58:25;;;;;;;42.10;23.48;;;3.20;99.90;;;;;;5113122;28;20039;-78
2024/01/13 09:00:54;;;;;;;45.03;24.10;;;3.20;99.90;;;;;;5113943;28;20081;-78
2024/01/13 09:03:21;;;;;;;43.53;22.83;;;3.30;99.90;;;;;;5113485;28;20027;-78
2024/01/13 09:05:47;;;;;;;41.60;24.00;;;3.30;99.90;;;;;;5113895;28;20031;-78
2024/01/13 09:08:12;;;;;;;42.75;23.58;;;3.20;99.90;;;;;;5113347;28;20020;-78
2024/01/13 09:10:39;;;;;;;42.08;23.30;;;3.30;99.90;;;;;;5113702;28;20388;-78
2024/01/13 09:13:05;;;;;;;41.83;24.08;;;3.20;99.90;;;;;;5113372;28;20019;-79
2024/01/13 09:15:31;;;;;;;39.38;22.10;;;3.30;99.90;;;;;;5114005;28;20046;-78
2024/01/13 09:17:57;;;;;;;43.45;23.92;;;3.30;99.90;;;;;;5129953;27;20300;-78
2024/01/13 09:20:24;;;;;;;44.47;25.02;;;3.30;99.90;;;;;;5133406;27;20019;-78
2024/01/13 09:22:50;;;;;;;38.35;21.88;;;3.30;99.90;;;;;;5134229;27;20440;-78
2024/01/13 09:25:15;;;;;;;40.17;21.95;;;3.40;99.90;;;;;;5133654;27;20072;-78
2024/01/13 09:27:41;;;;;;;42.75;24.20;;;3.40;99.90;;;;;;5134004;27;20103;-78
2024/01/13 09:30:07;;;;;;;40.88;22.80;;;3.40;99.90;;;;;;5133632;27;20090;-77
2024/01/13 09:32:33;;;;;;;38.45;22.10;;;3.40;99.90;;;;;;5134340;27;20337;-78
2024/01/13 09:34:59;;;;;;;36.95;21.58;;;3.50;99.90;;;;;;5138481;27;20031;-78
2024/01/13 09:37:24;;;;;;;34.13;21.33;;;3.50;99.90;;;;;;5139355;27;20027;-77
2024/01/13 09:39:51;;;;;;;37.88;22.42;;;3.50;99.90;;;;;;5157815;27;20027;-78
2024/01/13 09:42:43;;;;;;;35.88;21.25;;;3.60;99.90;;;;;;5153853;27;20098;-79
2024/01/13 09:45:11;;;;;;;37.28;21.63;;;3.60;99.90;;;;;;5122192;27;20035;-78
2024/01/13 09:47:37;;;;;;;39.08;22.60;;;3.60;99.90;;;;;;5133610;27;20452;-78
2024/01/13 09:50:04;;;;;;;38.60;22.35;;;3.60;99.90;;;;;;5134333;27;20026;-78
2024/01/13 09:52:31;;;;;;;37.55;21.48;;;3.60;99.90;;;;;;5133032;27;20124;-78
2024/01/13 09:55:03;;;;;;;40.20;22.23;;;3.60;99.90;;;;;;5133539;27;20063;-78
2024/01/13 09:57:29;;;;;;;35.63;20.83;;;3.70;99.90;;;;;;5108274;27;20039;-78
2024/01/13 09:59:54;;;;;;;38.03;21.23;;;3.70;99.90;;;;;;5121786;27;20441;-78
2024/01/13 10:02:20;;;;;;;36.17;21.48;;;3.70;99.90;;;;;;5127268;27;20140;-77
2024/01/13 10:04:46;;;;;;;34.92;21.08;;;3.70;99.90;;;;;;5134642;27;20034;-77
2024/01/13 10:07:12;;;;;;;36.38;21.73;;;3.70;99.90;;;;;;5133968;27;20042;-77
2024/01/13 10:09:38;;;;;;;34.72;21.30;;;3.70;99.90;;;;;;5134310;27;20094;-77
2024/01/13 10:12:07;;;;;;;51.42;23.02;;;3.70;99.90;;;;;;5139992;27;20168;-77
2024/01/13 10:14:43;;;;;;;35.47;19.85;;;3.70;99.90;;;;;;5144994;27;20049;-78
2024/01/13 10:17:09;;;;;;;38.47;20.95;;;3.70;99.90;;;;;;5144302;27;20361;-78
2024/01/13 10:19:42;;;;;;;34.60;20.63;;;3.70;99.90;;;;;;5145460;27;20015;-77
2024/01/13 10:22:08;;;;;;;38.55;21.75;;;3.80;99.90;;;;;;5144175;27;20312;-78
2024/01/13 10:24:34;;;;;;;35.22;21.45;;;3.90;99.90;;;;;;5143212;27;20335;-77
2024/01/13 10:27:01;;;;;;;36.53;21.75;;;4.00;99.90;;;;;;5133810;27;20024;-78
2024/01/13 10:29:28;;;;;;;36.25;21.60;;;4.00;99.90;;;;;;5123467;27;20027;-78
2024/01/13 10:31:54;;;;;;;31.52;19.95;;;4.00;99.90;;;;;;5125227;27;20019;-78
2024/01/13 10:34:20;;;;;;;31.08;19.55;;;4.10;99.90;;;;;;5121865;27;20416;-78
2024/01/13 10:36:46;;;;;;;35.90;21.10;;;4.20;99.90;;;;;;5123171;27;20016;-78
2024/01/13 10:39:12;;;;;;;39.50;21.63;;;4.20;99.90;;;;;;5112866;28;20427;-79
2024/01/13 10:41:46;;;;;;;30.20;20.15;;;4.20;99.90;;;;;;5113162;28;20024;-78
2024/01/13 10:44:15;;;;;;;34.15;20.70;;;4.30;99.90;;;;;;5112544;28;20092;-79
2024/01/13 10:46:46;;;;;;;34.05;21.05;;;4.20;99.90;;;;;;5112591;28;20022;-78
2024/01/13 10:49:26;;;;;;;37.15;21.95;;;4.30;99.90;;;;;;5117539;27;20109;-79
2024/01/13 10:51:56;;;;;;;33.33;20.85;;;4.30;99.90;;;;;;5121376;27;20125;-77
2024/01/13 10:54:25;;;;;;;35.38;20.67;;;4.40;99.90;;;;;;5119965;27;20016;-77
2024/01/13 10:56:55;;;;;;;32.92;19.98;;;4.40;99.90;;;;;;5120204;27;20027;-77
2024/01/13 10:59:26;;;;;;;32.72;20.50;;;4.40;99.90;;;;;;5117715;27;20471;-78
2024/01/13 11:01:53;;;;;;;34.33;20.40;;;4.50;99.90;;;;;;5112428;28;20022;-79
2024/01/13 11:04:21;;;;;;;30.73;19.95;;;4.60;99.90;;;;;;5110972;28;20065;-79
2024/01/13 11:06:47;;;;;;;30.08;18.58;;;4.60;99.90;;;;;;5093545;28;20429;-77
2024/01/13 11:09:16;;;;;;;30.92;19.30;;;4.70;99.90;;;;;;5093094;28;20019;-78
2024/01/13 11:12:22;;;;;;;32.03;19.23;;;4.70;99.90;;;;;;5111770;28;20421;-80
2024/01/13 11:15:31;;;;;;;33.75;20.60;;;4.80;99.90;;;;;;5129675;27;20039;-78
2024/01/13 11:18:01;;;;;;;31.63;20.13;;;4.90;99.90;;;;;;5082151;28;20519;-79
2024/01/13 11:20:27;;;;;;;32.80;19.85;;;4.90;99.90;;;;;;5113686;27;20023;-79
2024/01/13 11:22:58;;;;;;;31.45;20.40;;;5.00;99.90;;;;;;5131069;27;20341;-79
2024/01/13 11:25:28;;;;;;;33.78;20.48;;;5.00;99.90;;;;;;5131631;27;20051;-79
2024/01/13 11:27:57;;;;;;;31.90;19.58;;;4.90;99.90;;;;;;5132694;27;20104;-79
2024/01/13 11:30:38;;;;;;;32.67;19.90;;;5.00;99.90;;;;;;5131635;27;20026;-79
2024/01/13 11:33:15;;;;;;;34.00;18.65;;;5.00;99.90;;;;;;5132672;27;20026;-79
2024/01/13 11:35:46;;;;;;;32.72;19.75;;;5.00;99.90;;;;;;5132947;27;20039;-79
2024/01/13 11:38:14;;;;;;;33.30;20.25;;;5.10;99.90;;;;;;5131884;27;20022;-79
2024/01/13 11:40:50;;;;;;;32.05;19.98;;;5.10;99.90;;;;;;5132558;27;20488;-79
2024/01/13 11:43:24;;;;;;;32.85;19.58;;;5.20;99.90;;;;;;5131480;27;20413;-79
2024/01/13 11:45:51;;;;;;;33.50;19.40;;;5.20;99.90;;;;;;5131798;27;20023;-79
2024/01/13 11:48:40;;;;;;;34.30;20.25;;;5.10;99.90;;;;;;5131597;27;20038;-79
2024/01/13 11:51:13;;;;;;;34.00;20.75;;;5.10;99.90;;;;;;5131698;27;20127;-78
2024/01/13 11:53:43;;;;;;;31.77;18.83;;;5.10;99.90;;;;;;5132597;27;20031;-78
2024/01/13 11:56:11;;;;;;;32.72;19.30;;;5.20;99.90;;;;;;5132000;27;20445;-78
2024/01/13 11:58:38;;;;;;;32.10;19.17;;;5.20;99.90;;;;;;5131472;27;20043;-78
2024/01/13 12:01:09;;;;;;;33.17;19.80;;;5.30;99.90;;;;;;5132139;28;20022;-78
2024/01/13 12:03:35;;;;;;;30.77;19.40;;;5.30;99.90;;;;;;5131462;28;20096;-78
2024/01/13 12:06:01;;;;;;;33.65;21.48;;;5.30;99.90;;;;;;5132233;28;20145;-78
2024/01/13 12:08:27;;;;;;;32.25;19.92;;;5.30;99.90;;;;;;5131511;28;20027;-78
2024/01/13 12:10:54;;;;;;;35.35;20.38;;;5.30;99.90;;;;;;5132417;28;20513;-78
2024/01/13 12:13:21;;;;;;;35.38;19.90;;;5.40;99.90;;;;;;5114245;28;20072;-78
2024/01/13 12:15:47;;;;;;;36.90;21.90;;;5.30;99.90;;;;;;5136486;27;20444;-79
2024/01/13 12:18:25;;;;;;;34.50;20.67;;;5.40;99.90;;;;;;5118606;27;20443;-80
2024/01/13 12:20:57;;;;;;;32.10;19.50;;;5.50;99.90;;;;;;5131453;27;20015;-78
2024/01/13 12:23:24;;;;;;;32.92;19.13;;;5.40;99.90;;;;;;5123226;27;20092;-79
2024/01/13 12:25:53;;;;;;;35.92;20.10;;;5.40;99.90;;;;;;5115078;28;20463;-78
2024/01/13 12:28:20;;;;;;;30.80;19.58;;;5.40;99.90;;;;;;5114255;28;20103;-79
2024/01/13 12:30:48;;;;;;;34.40;21.83;;;5.40;99.90;;;;;;5115005;28;20028;-78
2024/01/13 12:33:14;;;;;;;35.47;21.00;;;5.40;99.90;;;;;;5114693;28;20020;-78